createdAt,value
2023-03-17T00:02:30.338Z,101042.38
2023-03-17T00:04:58.344Z,101046.78
2023-03-17T00:07:25.407Z,101056.38
2023-03-17T00:09:52.843Z,101053.78
2023-03-17T00:12:20.133Z,101058.16
2023-03-17T00:14:50.980Z,101038.06
2023-03-17T00:17:18.721Z,101052.94
2023-03-17T00:19:49.693Z,101052.06
2023-03-17T00:22:23.007Z,101060.78
2023-03-17T00:24:52.434Z,101049.44
2023-03-17T00:27:20.716Z,101066.06
2023-03-17T00:29:50.208Z,101062.59
2023-03-17T00:32:20.332Z,101079.22
2023-03-17T00:34:47.855Z,101063.44
2023-03-17T00:37:15.144Z,101069.56
2023-03-17T00:39:43.115Z,101085.34
2023-03-17T00:42:11.171Z,101079.22
2023-03-17T00:44:38.530Z,101082.75
2023-03-17T00:47:07.562Z,101090.63
2023-03-17T00:49:35.481Z,101083.63
2023-03-17T00:52:02.429Z,101078.38
2023-03-17T00:54:30.116Z,101089.75
2023-03-17T00:56:57.735Z,101078.38
2023-03-17T00:59:31.042Z,101075.75
2023-03-17T01:01:58.377Z,101081.91
2023-03-17T01:04:26.015Z,101086.28
2023-03-17T01:06:54.610Z,101089.78
2023-03-17T01:09:26.867Z,101079.25
2023-03-17T01:11:55.848Z,101087.16
2023-03-17T01:14:24.924Z,101091.53
2023-03-17T01:16:55.495Z,101096.81
2023-03-17T01:19:23.155Z,101102.91
2023-03-17T01:21:50.341Z,101106.41
2023-03-17T01:24:19.260Z,101098.56
2023-03-17T01:26:46.256Z,101109.03
2023-03-17T01:29:14.388Z,101107.28
2023-03-17T01:31:41.498Z,101098.56
2023-03-17T01:34:08.994Z,101109.91
2023-03-17T01:36:35.974Z,101110.81
2023-03-17T01:39:05.406Z,101114.28
2023-03-17T01:41:37.681Z,101109.94
2023-03-17T01:44:05.227Z,101116.94
2023-03-17T01:46:34.412Z,101115.19
2023-03-17T01:49:26.001Z,101126.56
2023-03-17T01:52:10.500Z,101128.31
2023-03-17T01:54:40.890Z,101128.31
2023-03-17T01:57:19.640Z,101133.56
2023-03-17T01:59:51.621Z,101140.56
2023-03-17T02:02:32.888Z,101137.94
2023-03-17T02:05:00.707Z,101139.69
2023-03-17T02:07:28.390Z,101147.56
2023-03-17T02:09:57.270Z,101161.56
2023-03-17T02:12:25.692Z,101158.06
2023-03-17T02:14:52.984Z,101144.94
2023-03-17T02:17:24.877Z,101167.69
2023-03-17T02:19:52.601Z,101165.03
2023-03-17T02:22:20.395Z,101168.56
2023-03-17T02:24:55.887Z,101174.69
2023-03-17T02:27:33.562Z,101181.66
2023-03-17T02:30:01.488Z,101169.44
2023-03-17T02:32:28.575Z,101179.06
2023-03-17T02:34:57.378Z,101186.03
2023-03-17T02:37:24.381Z,101182.56
2023-03-17T02:39:53.969Z,101181.69
2023-03-17T02:42:21.089Z,101190.41
2023-03-17T02:44:48.651Z,101181.69
2023-03-17T02:47:15.786Z,101197.41
2023-03-17T02:49:44.215Z,101186.03
2023-03-17T02:52:12.196Z,101189.53
2023-03-17T02:54:39.722Z,101190.41
2023-03-17T02:57:08.690Z,101192.16
2023-03-17T02:59:36.448Z,101193.03
2023-03-17T03:02:03.654Z,101195.63
2023-03-17T03:04:31.025Z,101195.66
2023-03-17T03:06:58.062Z,101206.16
2023-03-17T03:09:27.436Z,101205.28
2023-03-17T03:11:54.463Z,101208.78
2023-03-17T03:14:23.765Z,101192.13
2023-03-17T03:16:51.202Z,101192.13
2023-03-17T03:19:18.639Z,101194.75
2023-03-17T03:21:46.320Z,101204.38
2023-03-17T03:24:13.885Z,101200.00
2023-03-17T03:26:41.622Z,101210.50
2023-03-17T03:29:09.150Z,101206.09
2023-03-17T03:31:36.251Z,101207.84
2023-03-17T03:34:04.213Z,101211.34
2023-03-17T03:36:31.402Z,101225.31
2023-03-17T03:39:00.099Z,101219.22
2023-03-17T03:41:27.550Z,101215.69
2023-03-17T03:43:57.026Z,101209.56
2023-03-17T03:46:24.130Z,101225.34
2023-03-17T03:48:51.498Z,101218.34
2023-03-17T03:51:18.656Z,101219.22
2023-03-17T03:53:47.176Z,101216.56
2023-03-17T03:56:17.461Z,101226.19
2023-03-17T03:58:44.915Z,101233.19
2023-03-17T04:01:12.524Z,101241.94
2023-03-17T04:03:40.037Z,101234.94
2023-03-17T04:06:07.317Z,101240.19
2023-03-17T04:08:35.102Z,101246.28
2023-03-17T04:11:02.113Z,101244.53
2023-03-17T04:13:29.442Z,101252.38
2023-03-17T04:15:56.638Z,101248.00
2023-03-17T04:18:24.018Z,101254.13
2023-03-17T04:20:51.054Z,101265.53
2023-03-17T04:23:19.263Z,101264.66
2023-03-17T04:25:47.230Z,101264.66
2023-03-17T04:28:15.416Z,101269.91
2023-03-17T04:30:42.462Z,101264.66
2023-03-17T04:33:10.999Z,101271.63
2023-03-17T04:35:38.186Z,101248.94
2023-03-17T04:38:07.075Z,101266.38
2023-03-17T04:40:34.165Z,101275.13
2023-03-17T04:43:03.486Z,101275.09
2023-03-17T04:45:30.642Z,101279.47
2023-03-17T04:47:58.078Z,101275.09
2023-03-17T04:50:25.314Z,101289.06
2023-03-17T04:52:52.598Z,101283.81
2023-03-17T04:55:21.973Z,101282.91
2023-03-17T04:57:49.815Z,101293.44
2023-03-17T05:00:18.220Z,101260.19
2023-03-17T05:02:46.417Z,101299.56
2023-03-17T05:05:13.794Z,101286.41
2023-03-17T05:07:41.994Z,101305.66
2023-03-17T05:10:10.120Z,101291.63
2023-03-17T05:12:37.791Z,101310.06
2023-03-17T05:15:05.831Z,101317.91
2023-03-17T05:17:35.802Z,101310.03
2023-03-17T05:20:02.977Z,101316.16
2023-03-17T05:22:30.734Z,101316.16
2023-03-17T05:24:57.886Z,101321.38
2023-03-17T05:27:30.545Z,101333.63
2023-03-17T05:29:57.843Z,101326.63
2023-03-17T05:32:25.887Z,101325.78
2023-03-17T05:34:53.846Z,101336.28
2023-03-17T05:37:23.848Z,101339.78
2023-03-17T05:39:51.110Z,101342.41
2023-03-17T05:42:18.780Z,101352.03
2023-03-17T05:44:47.838Z,101347.59
2023-03-17T05:47:19.229Z,101352.00
2023-03-17T05:49:46.974Z,101338.00
2023-03-17T05:52:14.509Z,101344.97
2023-03-17T05:54:41.546Z,101342.38
2023-03-17T05:57:08.932Z,101357.25
2023-03-17T05:59:36.305Z,101359.94
2023-03-17T06:02:04.298Z,101357.31
2023-03-17T06:04:31.397Z,101327.59
2023-03-17T06:06:58.858Z,101333.69
2023-03-17T06:09:26.119Z,101364.28
2023-03-17T06:11:53.750Z,101359.91
2023-03-17T06:14:21.243Z,101360.81
2023-03-17T06:16:55.977Z,101372.19
2023-03-17T06:19:24.710Z,101349.44
2023-03-17T06:21:52.628Z,101364.34
2023-03-17T06:24:21.725Z,101365.22
2023-03-17T06:26:49.204Z,101356.47
2023-03-17T06:29:16.322Z,101360.00
2023-03-17T06:31:50.468Z,101355.66
2023-03-17T06:34:18.824Z,101356.50
2023-03-17T06:36:46.425Z,101355.66
2023-03-17T06:41:56.904Z,101373.25
2023-03-17T06:44:25.849Z,101364.56
2023-03-17T06:46:53.439Z,101355.00
2023-03-17T06:49:20.749Z,101363.72
2023-03-17T06:51:48.206Z,101370.78
2023-03-17T06:54:15.375Z,101367.28
2023-03-17T06:56:42.988Z,101361.16
2023-03-17T06:59:10.569Z,101359.41
2023-03-17T07:01:39.445Z,101349.81
2023-03-17T07:04:09.794Z,101353.31
2023-03-17T07:06:46.369Z,101365.56
2023-03-17T07:09:15.687Z,101359.41
2023-03-17T07:12:18.792Z,101326.09
2023-03-17T07:14:48.257Z,101343.63
2023-03-17T07:17:15.884Z,101334.00
2023-03-17T07:19:43.793Z,101352.41
2023-03-17T07:22:14.158Z,101348.00
2023-03-17T07:24:47.080Z,101342.72
2023-03-17T07:27:14.863Z,101350.59
2023-03-17T07:29:42.167Z,101350.63
2023-03-17T07:32:10.453Z,101340.06
2023-03-17T07:34:37.913Z,101346.19
2023-03-17T07:37:07.103Z,101344.41
2023-03-17T07:39:34.471Z,101333.03
2023-03-17T07:42:02.109Z,101327.78
2023-03-17T07:44:31.365Z,101340.03
2023-03-17T07:46:58.829Z,101341.75
2023-03-17T07:49:40.375Z,101347.00
2023-03-17T07:52:10.233Z,101347.00
2023-03-17T07:54:37.838Z,101363.63
2023-03-17T07:57:06.508Z,101350.47
2023-03-17T07:59:33.911Z,101346.06
2023-03-17T08:02:02.033Z,101359.19
2023-03-17T08:04:29.387Z,101360.03
2023-03-17T08:06:57.843Z,101367.06
2023-03-17T08:09:34.581Z,101360.00
2023-03-17T08:12:02.213Z,101355.56
2023-03-17T08:14:30.296Z,101363.50
2023-03-17T08:16:57.759Z,101353.78
2023-03-17T08:19:24.813Z,101364.34
2023-03-17T08:21:53.265Z,101369.56
2023-03-17T08:24:20.900Z,101360.75
2023-03-17T08:26:49.511Z,101359.03
2023-03-17T08:29:21.299Z,101363.31
2023-03-17T08:31:49.886Z,101346.56
2023-03-17T08:34:17.770Z,101357.00
2023-03-17T08:36:46.858Z,101343.25
2023-03-17T08:39:17.374Z,101329.38
2023-03-17T08:41:44.973Z,101337.13
2023-03-17T08:44:13.105Z,101339.94
2023-03-17T08:46:40.950Z,101341.09
2023-03-17T08:49:08.310Z,101345.81
2023-03-17T08:51:38.025Z,101353.38
2023-03-17T08:54:06.972Z,101353.41
2023-03-17T08:56:37.696Z,101350.75
2023-03-17T08:59:07.240Z,101352.88
2023-03-17T09:01:35.273Z,101361.97
2023-03-17T09:04:02.974Z,101344.25
2023-03-17T09:06:32.384Z,101349.41
2023-03-17T09:09:00.444Z,101349.88
2023-03-17T09:11:30.054Z,101333.38
2023-03-17T09:13:58.136Z,101316.72
2023-03-17T09:16:25.972Z,101345.91
2023-03-17T09:18:53.611Z,101341.53
2023-03-17T09:21:21.599Z,101356.91
2023-03-17T09:23:50.179Z,101332.06
2023-03-17T09:26:17.871Z,101356.56
2023-03-17T09:28:46.834Z,101343.69
2023-03-17T09:31:14.380Z,101319.31
2023-03-17T09:33:42.226Z,101330.34
2023-03-17T09:36:17.419Z,101348.50
2023-03-17T09:39:00.476Z,101345.97
2023-03-17T09:41:52.122Z,101351.16
2023-03-17T09:44:43.814Z,101354.38
2023-03-17T09:47:37.524Z,101342.28
2023-03-17T09:50:10.797Z,101344.16
2023-03-17T09:52:38.621Z,101339.53
2023-03-17T09:55:18.745Z,101341.94
2023-03-17T09:57:46.517Z,101343.22
2023-03-17T10:00:19.137Z,101349.22
2023-03-17T10:02:53.130Z,101325.22
2023-03-17T10:05:30.291Z,101349.31
2023-03-17T10:08:29.375Z,101332.63
2023-03-17T10:11:10.974Z,101323.94
2023-03-17T10:13:55.189Z,101345.19
2023-03-17T10:16:32.889Z,101337.78
2023-03-17T10:19:27.277Z,101330.84
2023-03-17T10:22:03.259Z,101311.03
2023-03-17T10:24:34.048Z,101331.94
2023-03-17T10:27:06.508Z,101324.16
2023-03-17T10:29:34.167Z,101327.41
2023-03-17T10:32:01.242Z,101322.69
2023-03-17T10:34:37.724Z,101333.09
2023-03-17T10:37:13.529Z,101336.84
2023-03-17T10:39:53.542Z,101321.97
2023-03-17T10:42:35.758Z,101304.47
2023-03-17T10:45:26.121Z,101323.56
2023-03-17T10:47:56.606Z,101313.91
2023-03-17T10:50:48.648Z,101314.56
2023-03-17T10:53:28.132Z,101312.69
2023-03-17T10:56:07.142Z,101322.28
2023-03-17T10:58:49.772Z,101323.53
2023-03-17T11:01:29.373Z,101302.16
2023-03-17T11:03:57.709Z,101308.31
2023-03-17T11:06:37.593Z,101311.41
2023-03-17T11:09:18.575Z,101307.16
2023-03-17T11:11:48.355Z,101320.72
2023-03-17T11:14:21.188Z,101293.44
2023-03-17T11:16:53.276Z,101309.38
2023-03-17T11:19:27.802Z,101309.81
2023-03-17T11:22:16.131Z,101304.31
2023-03-17T11:24:55.542Z,101289.47
2023-03-17T11:27:31.635Z,101307.78
2023-03-17T11:30:30.591Z,101302.34
2023-03-17T11:33:01.147Z,101298.22
2023-03-17T11:35:44.227Z,101302.81
2023-03-17T11:38:31.056Z,101282.00
2023-03-17T11:41:28.443Z,101305.63
2023-03-17T11:44:21.673Z,101304.25
2023-03-17T11:47:04.994Z,101294.22
2023-03-17T11:49:45.758Z,101299.06
2023-03-17T11:52:32.747Z,101300.25
2023-03-17T11:55:20.084Z,101287.13
2023-03-17T11:57:51.898Z,101304.81
2023-03-17T12:00:34.738Z,101282.75
2023-03-17T12:03:17.846Z,101289.91
2023-03-17T12:05:51.649Z,101304.41
2023-03-17T12:08:49.984Z,101301.97
2023-03-17T12:11:24.176Z,101292.25
2023-03-17T12:14:01.402Z,101294.97
2023-03-17T12:16:49.556Z,101300.94
2023-03-17T12:19:28.428Z,101307.69
2023-03-17T12:22:32.932Z,101309.31
2023-03-17T12:25:18.210Z,101288.69
2023-03-17T12:28:00.337Z,101305.78
2023-03-17T12:30:45.770Z,101311.81
2023-03-17T12:33:34.531Z,101302.00
2023-03-17T12:36:04.317Z,101304.09
2023-03-17T12:38:38.556Z,101296.97
2023-03-17T12:41:20.978Z,101300.72
2023-03-17T12:44:13.011Z,101288.16
2023-03-17T12:46:42.955Z,101300.75
2023-03-17T12:49:28.116Z,101305.22
2023-03-17T12:52:18.197Z,101315.72
2023-03-17T12:54:52.384Z,101305.44
2023-03-17T12:57:22.912Z,101322.41
2023-03-17T13:00:15.562Z,101323.16
2023-03-17T13:02:49.694Z,101299.00
2023-03-17T13:05:28.560Z,101308.22
2023-03-17T13:07:59.670Z,101306.25
2023-03-17T13:10:48.212Z,101306.44
2023-03-17T13:14:01.261Z,101308.19
2023-03-17T13:16:34.396Z,101309.38
2023-03-17T13:19:33.030Z,101288.00
2023-03-17T13:22:00.759Z,101292.13
2023-03-17T13:24:51.213Z,101306.75
2023-03-17T13:27:24.372Z,101312.56
2023-03-17T13:29:51.518Z,101293.66
2023-03-17T13:32:26.587Z,101307.47
2023-03-17T13:35:15.976Z,101297.63
2023-03-17T13:38:07.161Z,101316.34
2023-03-17T13:40:52.990Z,101295.00
2023-03-17T13:47:23.463Z,101300.47
2023-03-17T13:49:55.586Z,101305.19
2023-03-17T13:52:28.115Z,101297.72
2023-03-17T13:55:03.318Z,101300.53
2023-03-17T13:57:39.329Z,101312.56
2023-03-17T14:00:28.158Z,101320.16
2023-03-17T14:03:07.143Z,101320.16
2023-03-17T14:05:38.271Z,101328.63
2023-03-17T14:08:22.850Z,101321.41
2023-03-17T14:10:57.012Z,101318.94
2023-03-17T14:13:44.828Z,101316.84
2023-03-17T14:16:26.696Z,101326.63
2023-03-17T14:19:27.208Z,101324.03
2023-03-17T14:22:01.795Z,101335.19
2023-03-17T14:24:31.847Z,101341.78
2023-03-17T14:27:07.333Z,101332.09
2023-03-17T14:29:35.246Z,101328.81
2023-03-17T14:32:12.121Z,101321.09
2023-03-17T14:34:43.902Z,101339.28
2023-03-17T14:37:15.103Z,101330.94
2023-03-17T14:39:52.488Z,101341.84
2023-03-17T14:42:26.799Z,101355.97
2023-03-17T14:45:08.840Z,101353.28
2023-03-17T14:47:56.303Z,101340.91
2023-03-17T14:50:30.251Z,101332.13
2023-03-17T14:53:01.544Z,101347.03
2023-03-17T14:55:43.442Z,101342.38
2023-03-17T14:58:24.808Z,101347.38
2023-03-17T15:01:08.093Z,101338.59
2023-03-17T15:03:40.008Z,101356.16
2023-03-17T15:06:26.150Z,101362.41
2023-03-17T15:08:54.690Z,101350.44
2023-03-17T15:11:41.833Z,101355.03
2023-03-17T15:14:38.928Z,101365.59
2023-03-17T15:17:17.241Z,101366.56
2023-03-17T15:19:50.760Z,101357.94
2023-03-17T15:22:22.913Z,101355.59
2023-03-17T15:25:22.580Z,101355.69
2023-03-17T15:27:51.584Z,101356.53
2023-03-17T15:30:19.430Z,101352.91
2023-03-17T15:32:53.063Z,101356.53
2023-03-17T15:35:21.473Z,101363.88
2023-03-17T15:37:48.833Z,101372.88
2023-03-17T15:43:07.375Z,101371.19
2023-03-17T15:45:47.560Z,101363.34
2023-03-17T15:48:26.525Z,101382.84
2023-03-17T15:50:56.985Z,101388.25
2023-03-17T15:53:39.733Z,101380.47
2023-03-17T15:56:14.432Z,101394.72
2023-03-17T15:58:41.595Z,101392.16
2023-03-17T16:01:11.839Z,101393.97
2023-03-17T16:03:45.735Z,101407.13
2023-03-17T16:06:20.893Z,101415.03
2023-03-17T16:08:49.947Z,101405.31
2023-03-17T16:11:29.252Z,101415.03
2023-03-17T16:14:03.560Z,101427.44
2023-03-17T16:16:39.859Z,101417.78
2023-03-17T16:19:15.121Z,101418.72
2023-03-17T16:21:42.751Z,101428.38
2023-03-17T16:24:31.832Z,101422.28
2023-03-17T16:26:59.637Z,101432.00
2023-03-17T16:29:26.725Z,101432.00
2023-03-17T16:31:54.137Z,101434.66
2023-03-17T16:34:23.395Z,101438.22
2023-03-17T16:36:54.415Z,101438.25
2023-03-17T16:39:23.540Z,101444.53
2023-03-17T16:42:04.942Z,101450.81
2023-03-17T16:47:26.794Z,101443.97
2023-03-17T16:49:53.775Z,101441.34
2023-03-17T16:52:21.110Z,101444.91
2023-03-17T16:54:48.557Z,101438.91
2023-03-17T16:57:16.334Z,101445.06
2023-03-17T16:59:43.419Z,101434.53
2023-03-17T17:02:16.399Z,101444.25
2023-03-17T17:04:44.013Z,101447.81
2023-03-17T17:07:11.681Z,101446.09
2023-03-17T17:09:39.136Z,101439.03
2023-03-17T17:12:07.181Z,101447.03
2023-03-17T17:14:34.380Z,101441.78
2023-03-17T17:17:14.853Z,101450.63
2023-03-17T17:19:44.844Z,101451.53
2023-03-17T17:22:14.745Z,101466.50
2023-03-17T17:24:41.771Z,101459.47
2023-03-17T17:27:09.149Z,101460.41
2023-03-17T17:32:22.153Z,101461.34
2023-03-17T17:34:49.662Z,101469.25
2023-03-17T17:37:17.341Z,101464.84
2023-03-17T17:39:45.013Z,101463.09
2023-03-17T17:42:16.319Z,101466.63
2023-03-17T17:44:43.647Z,101462.25
2023-03-17T17:47:14.095Z,101461.34
2023-03-17T17:49:41.820Z,101465.75
2023-03-17T17:52:10.680Z,101468.41
2023-03-17T17:54:39.121Z,101464.88
2023-03-17T17:57:07.185Z,101464.03
2023-03-17T17:59:34.591Z,101463.16
2023-03-17T18:02:03.478Z,101462.31
2023-03-17T18:04:30.923Z,101465.78
2023-03-17T18:09:44.169Z,101473.75
2023-03-17T18:12:12.944Z,101482.53
2023-03-17T18:14:39.940Z,101486.03
2023-03-17T18:17:09.463Z,101488.72
2023-03-17T18:19:37.602Z,101482.56
2023-03-17T18:22:05.186Z,101486.13
2023-03-17T18:24:32.300Z,101485.25
2023-03-17T18:27:00.760Z,101478.25
2023-03-17T18:29:27.917Z,101487.06
2023-03-17T18:31:55.762Z,101483.56
2023-03-17T18:34:44.364Z,101494.97
2023-03-17T18:37:15.441Z,101487.06
2023-03-17T18:39:43.498Z,101487.09
2023-03-17T18:42:14.463Z,101491.47
2023-03-17T18:44:41.598Z,101484.50
2023-03-17T18:47:10.899Z,101500.28
2023-03-17T18:49:38.444Z,101499.41
2023-03-17T18:52:05.765Z,101495.00
2023-03-17T18:54:33.266Z,101486.25
2023-03-17T18:57:02.008Z,101495.94
2023-03-17T18:59:29.022Z,101500.34
2023-03-17T19:01:57.356Z,101502.97
2023-03-17T19:04:24.460Z,101501.19
2023-03-17T19:06:52.348Z,101491.56
2023-03-17T19:09:19.677Z,101506.47
2023-03-17T19:11:47.178Z,101494.19
2023-03-17T19:14:14.409Z,101507.38
2023-03-17T19:16:41.888Z,101486.31
2023-03-17T19:19:09.176Z,101495.06
2023-03-17T19:21:36.633Z,101502.09
2023-03-17T19:24:05.035Z,101489.81
2023-03-17T19:26:33.819Z,101488.06
2023-03-17T19:29:01.607Z,101488.94
2023-03-17T19:31:29.133Z,101500.38
2023-03-17T19:33:56.700Z,101509.13
2023-03-17T19:36:24.257Z,101497.72
2023-03-17T19:38:51.344Z,101500.38
2023-03-17T19:41:19.109Z,101489.88
2023-03-17T19:43:46.331Z,101493.41
2023-03-17T19:46:13.921Z,101496.03
2023-03-17T19:48:42.059Z,101497.81
2023-03-17T19:51:09.980Z,101499.56
2023-03-17T19:53:37.632Z,101507.47
2023-03-17T19:56:05.266Z,101508.31
2023-03-17T19:58:32.746Z,101495.19
2023-03-17T20:01:00.568Z,101488.19
2023-03-17T20:03:28.561Z,101495.16
2023-03-17T20:08:37.906Z,101486.41
2023-03-17T20:11:06.378Z,101501.34
2023-03-17T20:13:35.078Z,101503.09
2023-03-17T20:16:03.784Z,101497.84
2023-03-17T20:18:31.515Z,101497.84
2023-03-17T20:21:07.534Z,101497.81
2023-03-17T20:23:36.865Z,101496.09
2023-03-17T20:26:05.173Z,101497.00
2023-03-17T20:28:32.690Z,101503.09
2023-03-17T20:31:03.106Z,101495.22
2023-03-17T20:33:32.655Z,101498.75
2023-03-17T20:36:03.305Z,101482.06
2023-03-17T20:38:33.384Z,101489.97
2023-03-17T20:41:14.202Z,101489.06
2023-03-17T20:43:41.978Z,101489.09
2023-03-17T20:46:15.727Z,101482.06
2023-03-17T20:48:44.334Z,101488.25
2023-03-17T20:51:16.497Z,101490.84
2023-03-17T20:53:46.365Z,101489.09
2023-03-17T20:56:16.511Z,101483.88
2023-03-17T20:58:49.534Z,101485.59
2023-03-17T21:01:21.538Z,101487.38
2023-03-17T21:03:50.895Z,101493.53
2023-03-17T21:06:18.739Z,101494.38
2023-03-17T21:08:46.353Z,101483.88
2023-03-17T21:11:17.789Z,101484.75
2023-03-17T21:13:45.430Z,101493.53
2023-03-17T21:16:25.867Z,101483.88
2023-03-17T21:18:53.173Z,101474.25
2023-03-17T21:21:21.851Z,101482.13
2023-03-17T21:23:49.405Z,101490.88
2023-03-17T21:26:17.880Z,101482.13
2023-03-17T21:28:45.475Z,101473.38
2023-03-17T21:31:14.002Z,101484.75
2023-03-17T21:33:42.232Z,101465.47
2023-03-17T21:36:09.893Z,101470.72
2023-03-17T21:38:37.740Z,101470.72
2023-03-17T21:41:34.026Z,101471.59
2023-03-17T21:44:02.301Z,101473.34
2023-03-17T21:46:31.767Z,101473.38
2023-03-17T21:48:58.791Z,101485.63
2023-03-17T21:51:27.948Z,101477.72
2023-03-17T21:53:55.117Z,101490.00
2023-03-17T21:56:22.442Z,101488.25
2023-03-17T21:58:50.265Z,101494.38
2023-03-17T22:01:20.545Z,101495.22
2023-03-17T22:03:49.620Z,101496.97
2023-03-17T22:06:17.737Z,101493.50
2023-03-17T22:08:45.852Z,101483.84
2023-03-17T22:11:18.866Z,101492.59
2023-03-17T22:13:46.812Z,101493.47
2023-03-17T22:16:15.719Z,101502.22
2023-03-17T22:18:43.177Z,101501.34
2023-03-17T22:21:11.028Z,101504.84
2023-03-17T22:23:42.465Z,101498.69
2023-03-17T22:26:15.517Z,101494.31
2023-03-17T22:28:43.853Z,101501.31
2023-03-17T22:31:17.597Z,101492.56
2023-03-17T22:33:46.853Z,101503.09
2023-03-17T22:36:14.607Z,101487.31
2023-03-17T22:38:42.163Z,101495.19
2023-03-17T22:41:13.510Z,101503.94
2023-03-17T22:43:41.798Z,101499.53
2023-03-17T22:46:11.310Z,101507.44
2023-03-17T22:48:39.977Z,101501.25
2023-03-17T22:51:15.857Z,101509.13
2023-03-17T22:53:44.724Z,101510.88
2023-03-17T22:56:13.168Z,101510.88
2023-03-17T22:58:40.600Z,101514.28
2023-03-17T23:01:10.293Z,101513.34
2023-03-17T23:03:37.388Z,101510.66
2023-03-17T23:06:06.185Z,101522.94
2023-03-17T23:08:36.181Z,101521.19
2023-03-17T23:11:07.978Z,101507.16
2023-03-17T23:13:35.937Z,101512.41
2023-03-17T23:16:04.885Z,101510.63
2023-03-17T23:18:32.751Z,101506.22
2023-03-17T23:21:01.670Z,101514.16
2023-03-17T23:23:30.396Z,101509.78
2023-03-17T23:25:58.268Z,101502.78
2023-03-17T23:28:25.393Z,101503.66
2023-03-17T23:30:53.422Z,101498.41
2023-03-17T23:33:23.118Z,101492.25
2023-03-17T23:35:52.984Z,101494.88
2023-03-17T23:38:21.661Z,101492.31
2023-03-17T23:40:50.247Z,101495.78
2023-03-17T23:43:17.547Z,101502.81
2023-03-17T23:45:45.588Z,101496.69
2023-03-17T23:48:12.949Z,101480.03
2023-03-17T23:50:41.394Z,101492.31
2023-03-17T23:53:09.972Z,101487.06
2023-03-17T23:55:38.748Z,101486.19
2023-03-17T23:58:05.791Z,101480.06
